IMF weather

Imphal Airport
Imphal, Manipur, India

Public forecast

Using degrees Celsius for public forecast. Weather courtesy of forecast.io.

Current aviation weather report (METAR) for Imphal Airport

Report is more than 6 hours old.

Retrieved 2019/10/17 11:00 UTC (12 hours ago):

VEIM 171100Z 25002KT 6000 FEW018 27/20 Q1013 BECMG 5000 HZ

Aviation forecast (TAF) for Imphal Airport

Forecast is more than 12 hours old.

Retrieved 2017/12/28 12:00 UTC (2 years ago):

TAF VEIM 281100Z 2812/2821 06006KT 4000 BR FEW020 BECMG 2815/2817 00000KT 2000 BR